Time;durP1;ratioP1;P1;durP2;ratioP2;P2;SDS_P1;SDS_P2;PMS_P1;PMS_P2;Temp;Humidity;BMP_temperature;BMP_pressure;BME280_temperature;BME280_humidity;BME280_pressure;Samples;Min_cycle;Max_cycle;Signal;HPM_P1;HPM_P2
2021/03/18 00:00:29;;;;;;;17.23;7.57;;;;;;;;;;5024681;28;20462;-71
2021/03/18 00:02:55;;;;;;;17.17;7.10;;;;;;;;;;5023986;28;20772;-71
2021/03/18 00:05:21;;;;;;;12.27;6.63;;;;;;;;;;5023086;28;20948;-72
2021/03/18 00:07:47;;;;;;;14.43;7.22;;;;;;;;;;5024068;28;21468;-71
2021/03/18 00:10:13;;;;;;;19.52;8.88;;;;;;;;;;5022861;28;20398;-71
2021/03/18 00:12:39;;;;;;;19.42;8.07;;;;;;;;;;5023941;28;20395;-70
2021/03/18 00:15:10;;;;;;;11.20;5.78;;;;;;;;;;5024717;28;20441;-71
2021/03/18 00:17:37;;;;;;;15.25;5.47;;;;;;;;;;5021481;28;20455;-71
2021/03/18 00:20:05;;;;;;;11.53;5.00;;;;;;;;;;5024083;28;20423;-71
2021/03/18 00:22:31;;;;;;;13.77;5.90;;;;;;;;;;5022140;28;20418;-70
2021/03/18 00:24:57;;;;;;;16.35;5.97;;;;;;;;;;5024688;28;20394;-71
2021/03/18 00:27:23;;;;;;;14.83;5.50;;;;;;;;;;5023852;28;20468;-71
2021/03/18 00:29:49;;;;;;;14.98;5.55;;;;;;;;;;5024560;28;20407;-71
2021/03/18 00:32:15;;;;;;;15.88;5.90;;;;;;;;;;5021031;28;20461;-71
2021/03/18 00:34:41;;;;;;;13.05;5.97;;;;;;;;;;5024849;28;20402;-72
2021/03/18 00:37:07;;;;;;;17.17;5.18;;;;;;;;;;5024423;28;20399;-72
2021/03/18 00:39:33;;;;;;;13.93;6.60;;;;;;;;;;5024308;28;20469;-71
2021/03/18 00:41:59;;;;;;;14.73;6.05;;;;;;;;;;5024206;28;20395;-71
2021/03/18 00:44:25;;;;;;;16.35;6.30;;;;;;;;;;5023212;28;20407;-71
2021/03/18 00:46:51;;;;;;;18.00;5.70;;;;;;;;;;5023501;28;20811;-70
2021/03/18 00:49:17;;;;;;;20.17;6.87;;;;;;;;;;5023477;28;20402;-71
2021/03/18 00:51:43;;;;;;;14.25;6.30;;;;;;;;;;5022692;28;20869;-71
2021/03/18 00:54:09;;;;;;;13.43;5.72;;;;;;;;;;5021280;28;20411;-71
2021/03/18 00:56:35;;;;;;;11.50;5.40;;;;;;;;;;5021714;28;20396;-71
2021/03/18 00:59:01;;;;;;;19.03;5.13;;;;;;;;;;5023529;28;20505;-71
2021/03/18 01:01:27;;;;;;;13.07;5.20;;;;;;;;;;5023488;28;20410;-71
2021/03/18 01:03:53;;;;;;;13.55;4.60;;;;;;;;;;5022371;28;20445;-71
2021/03/18 01:06:29;;;;;;;13.35;5.80;;;;;;;;;;5019123;28;20423;-71
2021/03/18 01:08:56;;;;;;;13.65;4.75;;;;;;;;;;5020287;28;20415;-71
2021/03/18 01:11:23;;;;;;;13.38;4.55;;;;;;;;;;5023312;28;20403;-71
2021/03/18 01:13:52;;;;;;;13.75;4.80;;;;;;;;;;5021328;28;20395;-70
2021/03/18 01:16:17;;;;;;;10.15;4.40;;;;;;;;;;5020938;28;20480;-71
2021/03/18 01:18:43;;;;;;;23.17;5.47;;;;;;;;;;5022822;28;20883;-70
2021/03/18 01:21:10;;;;;;;16.35;6.00;;;;;;;;;;5017871;28;20423;-73
2021/03/18 01:23:36;;;;;;;17.98;6.20;;;;;;;;;;5023471;28;20502;-72
2021/03/18 01:26:03;;;;;;;17.65;5.68;;;;;;;;;;5020319;28;20392;-70
2021/03/18 01:28:30;;;;;;;15.93;5.30;;;;;;;;;;5024453;28;20460;-71
2021/03/18 01:30:56;;;;;;;12.35;5.03;;;;;;;;;;5027795;28;20852;-71
2021/03/18 01:33:22;;;;;;;12.73;4.90;;;;;;;;;;5029875;28;20437;-70
2021/03/18 01:35:48;;;;;;;16.70;5.15;;;;;;;;;;5031360;28;20410;-71
2021/03/18 01:38:14;;;;;;;13.48;5.18;;;;;;;;;;5027971;28;20403;-70
2021/03/18 01:40:40;;;;;;;15.05;4.90;;;;;;;;;;5030392;28;20434;-72
2021/03/18 01:43:06;;;;;;;15.02;4.68;;;;;;;;;;5028819;28;20741;-71
2021/03/18 01:45:32;;;;;;;17.58;5.28;;;;;;;;;;5031053;28;20398;-71
2021/03/18 01:47:58;;;;;;;13.02;5.32;;;;;;;;;;5028111;28;20423;-71
2021/03/18 01:50:26;;;;;;;14.43;5.68;;;;;;;;;;5030446;28;20400;-71
2021/03/18 01:52:54;;;;;;;14.05;5.43;;;;;;;;;;5029628;28;20440;-71
2021/03/18 01:55:24;;;;;;;15.35;6.05;;;;;;;;;;5029706;28;20406;-71
2021/03/18 01:57:50;;;;;;;8.00;4.30;;;;;;;;;;5027735;28;20973;-71
2021/03/18 02:00:17;;;;;;;12.07;4.63;;;;;;;;;;5029584;28;20712;-71
2021/03/18 02:02:44;;;;;;;11.40;4.87;;;;;;;;;;5029334;28;20486;-70
2021/03/18 02:05:10;;;;;;;11.38;4.80;;;;;;;;;;5029610;28;20430;-71
2021/03/18 02:07:36;;;;;;;13.33;4.77;;;;;;;;;;5002768;28;20405;-71
2021/03/18 02:10:03;;;;;;;10.88;4.53;;;;;;;;;;5022224;28;20421;-71
2021/03/18 02:12:29;;;;;;;16.58;5.25;;;;;;;;;;5030106;28;20391;-71
2021/03/18 02:14:55;;;;;;;11.93;4.78;;;;;;;;;;5029672;28;20992;-71
2021/03/18 02:17:29;;;;;;;15.38;4.75;;;;;;;;;;5012345;28;20410;-70
2021/03/18 02:19:58;;;;;;;16.02;4.63;;;;;;;;;;5027554;28;20731;-70
2021/03/18 02:22:24;;;;;;;16.77;5.10;;;;;;;;;;5029365;28;20441;-72
2021/03/18 02:24:59;;;;;;;15.00;5.03;;;;;;;;;;5029453;28;20438;-70
2021/03/18 02:27:45;;;;;;;12.23;4.80;;;;;;;;;;5027861;28;20399;-71
2021/03/18 02:30:29;;;;;;;11.02;4.63;;;;;;;;;;5029824;28;20418;-71
2021/03/18 02:33:07;;;;;;;11.38;4.20;;;;;;;;;;5027715;28;20414;-71
2021/03/18 02:35:39;;;;;;;13.55;4.60;;;;;;;;;;5030535;28;20426;-70
2021/03/18 02:38:16;;;;;;;11.73;4.72;;;;;;;;;;5027682;28;20431;-71
2021/03/18 02:40:46;;;;;;;10.90;4.22;;;;;;;;;;5028550;28;20464;-71
2021/03/18 02:43:14;;;;;;;12.73;4.83;;;;;;;;;;5028705;28;20467;-70
2021/03/18 02:45:46;;;;;;;15.35;5.03;;;;;;;;;;5028968;28;20391;-71
2021/03/18 02:48:14;;;;;;;17.65;4.82;;;;;;;;;;5028553;28;20403;-71
2021/03/18 02:50:41;;;;;;;13.70;4.60;;;;;;;;;;5029159;28;20375;-71
2021/03/18 02:53:07;;;;;;;15.18;4.80;;;;;;;;;;5028181;28;20498;-71
2021/03/18 02:55:34;;;;;;;12.40;4.68;;;;;;;;;;5005427;28;20391;-70
2021/03/18 02:58:01;;;;;;;15.65;4.97;;;;;;;;;;5027888;28;20721;-71
2021/03/18 03:00:28;;;;;;;14.55;5.30;;;;;;;;;;5026687;28;20434;-71
2021/03/18 03:02:54;;;;;;;13.75;4.78;;;;;;;;;;5030194;28;20377;-71
2021/03/18 03:05:22;;;;;;;11.27;4.43;;;;;;;;;;5010491;28;21183;-71
2021/03/18 03:07:48;;;;;;;13.80;4.63;;;;;;;;;;5028254;28;20422;-70
2021/03/18 03:10:17;;;;;;;12.02;4.55;;;;;;;;;;5027639;28;20828;-71
2021/03/18 03:12:43;;;;;;;13.25;5.43;;;;;;;;;;5028558;28;20466;-71
2021/03/18 03:15:10;;;;;;;14.60;5.27;;;;;;;;;;5028071;28;20704;-70
2021/03/18 03:17:36;;;;;;;14.48;5.43;;;;;;;;;;5028565;28;20410;-71
2021/03/18 03:20:04;;;;;;;20.23;5.30;;;;;;;;;;5027699;28;20498;-70
2021/03/18 03:22:31;;;;;;;13.63;5.18;;;;;;;;;;5028349;28;20429;-71
2021/03/18 03:24:58;;;;;;;13.80;5.53;;;;;;;;;;5026973;28;20410;-70
2021/03/18 03:27:24;;;;;;;17.27;5.93;;;;;;;;;;5028100;28;20407;-71
2021/03/18 03:29:51;;;;;;;15.07;5.63;;;;;;;;;;5027385;28;20498;-71
2021/03/18 03:32:17;;;;;;;16.50;6.32;;;;;;;;;;5028065;28;20473;-70
2021/03/18 03:34:43;;;;;;;12.00;4.70;;;;;;;;;;5027563;28;20471;-71
2021/03/18 03:37:09;;;;;;;14.68;5.00;;;;;;;;;;5026766;28;20601;-70
2021/03/18 03:39:36;;;;;;;16.58;5.45;;;;;;;;;;5025125;28;20433;-72
2021/03/18 03:42:03;;;;;;;15.38;5.10;;;;;;;;;;5028926;28;20419;-71
2021/03/18 03:44:29;;;;;;;14.05;5.18;;;;;;;;;;5024921;28;20403;-70
2021/03/18 03:46:55;;;;;;;13.40;4.82;;;;;;;;;;5028577;28;20445;-70
2021/03/18 03:49:21;;;;;;;17.20;5.50;;;;;;;;;;5027738;28;20430;-71
2021/03/18 03:51:56;;;;;;;12.88;5.43;;;;;;;;;;5027647;28;20859;-71
2021/03/18 03:54:23;;;;;;;14.50;5.60;;;;;;;;;;5024836;28;20422;-70
2021/03/18 03:56:57;;;;;;;15.40;5.68;;;;;;;;;;5026798;28;20753;-70
2021/03/18 03:59:25;;;;;;;12.33;5.00;;;;;;;;;;5027222;28;20451;-70
2021/03/18 04:01:52;;;;;;;11.95;4.93;;;;;;;;;;5026068;28;20402;-71
2021/03/18 04:04:27;;;;;;;16.00;5.63;;;;;;;;;;5027659;28;20399;-70
2021/03/18 04:06:58;;;;;;;13.43;5.03;;;;;;;;;;5007563;28;20416;-70
2021/03/18 04:09:27;;;;;;;16.02;5.40;;;;;;;;;;5007408;28;20444;-71
2021/03/18 04:11:55;;;;;;;16.95;6.00;;;;;;;;;;5007939;28;20522;-71
2021/03/18 04:14:23;;;;;;;16.33;5.43;;;;;;;;;;5007549;28;20397;-71
2021/03/18 04:16:49;;;;;;;18.08;5.40;;;;;;;;;;5007409;28;20451;-70
2021/03/18 04:19:17;;;;;;;16.97;6.33;;;;;;;;;;5007219;28;20459;-71
2021/03/18 04:21:45;;;;;;;17.63;5.75;;;;;;;;;;5006292;28;20408;-71
2021/03/18 04:24:12;;;;;;;14.13;5.25;;;;;;;;;;5006352;28;20400;-70
2021/03/18 04:26:39;;;;;;;12.43;5.60;;;;;;;;;;5006284;28;20409;-70
2021/03/18 04:29:06;;;;;;;15.68;5.40;;;;;;;;;;5007640;28;20538;-70
2021/03/18 04:31:42;;;;;;;18.58;5.72;;;;;;;;;;5007660;28;20401;-70
2021/03/18 04:34:08;;;;;;;15.23;5.57;;;;;;;;;;5006846;28;20497;-71
2021/03/18 04:36:35;;;;;;;13.95;5.13;;;;;;;;;;5007611;28;20404;-71
2021/03/18 04:39:01;;;;;;;19.10;5.10;;;;;;;;;;5007237;28;20902;-71
2021/03/18 04:41:28;;;;;;;14.05;5.32;;;;;;;;;;5006766;28;20437;-71
2021/03/18 04:43:55;;;;;;;14.00;5.30;;;;;;;;;;5007260;28;20934;-71
2021/03/18 04:46:21;;;;;;;13.55;5.70;;;;;;;;;;4996961;28;20405;-70
2021/03/18 04:48:47;;;;;;;14.57;5.35;;;;;;;;;;5001193;28;20802;-70
2021/03/18 04:51:13;;;;;;;25.67;6.03;;;;;;;;;;5007314;28;20479;-71
2021/03/18 04:53:39;;;;;;;14.93;5.43;;;;;;;;;;5006535;28;20574;-70
2021/03/18 04:56:09;;;;;;;14.02;5.32;;;;;;;;;;5005552;28;20850;-70
2021/03/18 04:58:38;;;;;;;14.73;5.35;;;;;;;;;;5007704;28;20782;-70
2021/03/18 05:01:05;;;;;;;18.77;5.93;;;;;;;;;;5005894;28;20511;-70
2021/03/18 05:03:33;;;;;;;12.13;5.50;;;;;;;;;;5008283;28;20400;-70
2021/03/18 05:06:00;;;;;;;14.80;5.87;;;;;;;;;;5021907;28;20503;-71
2021/03/18 05:08:27;;;;;;;14.77;5.85;;;;;;;;;;5029593;28;20453;-70
2021/03/18 05:10:54;;;;;;;15.48;5.97;;;;;;;;;;5030487;28;20399;-70
2021/03/18 05:13:20;;;;;;;17.90;7.18;;;;;;;;;;5031385;28;20753;-71
2021/03/18 05:15:47;;;;;;;23.03;8.23;;;;;;;;;;5028840;28;20417;-71
2021/03/18 05:18:14;;;;;;;15.23;7.27;;;;;;;;;;5025450;28;20910;-71
2021/03/18 05:20:41;;;;;;;16.27;6.90;;;;;;;;;;5029633;28;20427;-71
2021/03/18 05:23:08;;;;;;;17.13;6.80;;;;;;;;;;5030420;28;20406;-71
2021/03/18 05:25:34;;;;;;;14.77;6.10;;;;;;;;;;5029287;28;20417;-71
2021/03/18 05:28:01;;;;;;;15.50;5.93;;;;;;;;;;5029868;28;20398;-71
2021/03/18 05:30:27;;;;;;;11.43;5.38;;;;;;;;;;5030113;28;20391;-70
2021/03/18 05:32:53;;;;;;;15.07;5.32;;;;;;;;;;5030027;28;20423;-70
2021/03/18 05:35:19;;;;;;;15.95;5.57;;;;;;;;;;5030213;28;20908;-71
2021/03/18 05:37:45;;;;;;;15.00;5.88;;;;;;;;;;5029227;28;20399;-71
2021/03/18 05:40:12;;;;;;;15.25;5.80;;;;;;;;;;5030073;28;20421;-70
2021/03/18 05:42:39;;;;;;;16.38;6.40;;;;;;;;;;5029039;28;20753;-73
2021/03/18 05:45:06;;;;;;;16.65;6.80;;;;;;;;;;5030748;28;20464;-71
2021/03/18 05:47:32;;;;;;;19.92;6.93;;;;;;;;;;5028519;28;20410;-71
2021/03/18 05:49:59;;;;;;;16.92;6.85;;;;;;;;;;5031153;28;20462;-71
2021/03/18 05:52:26;;;;;;;15.52;5.90;;;;;;;;;;5029271;28;20411;-70
2021/03/18 05:54:52;;;;;;;19.35;6.70;;;;;;;;;;5030416;28;20438;-71
2021/03/18 05:57:19;;;;;;;15.82;6.60;;;;;;;;;;5026106;28;21132;-70
2021/03/18 05:59:46;;;;;;;20.38;6.32;;;;;;;;;;5029148;28;20457;-71
2021/03/18 06:02:12;;;;;;;13.97;5.70;;;;;;;;;;5028164;28;20395;-71
2021/03/18 06:04:39;;;;;;;16.63;5.60;;;;;;;;;;5030173;28;20477;-70
2021/03/18 06:07:05;;;;;;;13.95;6.13;;;;;;;;;;5028207;28;20900;-71
2021/03/18 06:09:31;;;;;;;15.50;6.13;;;;;;;;;;5030127;28;20449;-70
2021/03/18 06:11:58;;;;;;;15.15;7.43;;;;;;;;;;5027840;28;20419;-71
2021/03/18 06:14:24;;;;;;;14.97;8.30;;;;;;;;;;5028801;28;20845;-71
2021/03/18 06:16:50;;;;;;;14.55;7.82;;;;;;;;;;5029264;28;20494;-72
2021/03/18 06:19:16;;;;;;;12.75;7.40;;;;;;;;;;5030306;28;20950;-70
2021/03/18 06:21:43;;;;;;;15.98;7.57;;;;;;;;;;5028057;28;20414;-71
2021/03/18 06:24:09;;;;;;;16.48;7.28;;;;;;;;;;5028831;28;20884;-70
2021/03/18 06:26:36;;;;;;;14.13;6.95;;;;;;;;;;5027435;28;20434;-71
2021/03/18 06:29:03;;;;;;;16.40;6.85;;;;;;;;;;5029482;28;20414;-71
2021/03/18 06:31:30;;;;;;;12.98;6.68;;;;;;;;;;5028189;28;20399;-71
2021/03/18 06:33:56;;;;;;;19.67;7.03;;;;;;;;;;5028007;28;20446;-71
2021/03/18 06:36:24;;;;;;;20.00;7.25;;;;;;;;;;5029354;28;20431;-72
2021/03/18 06:39:07;;;;;;;22.48;9.00;;;;;;;;;;5027030;28;20823;-71
2021/03/18 06:41:42;;;;;;;21.45;9.25;;;;;;;;;;5029023;28;20427;-71
2021/03/18 06:44:31;;;;;;;21.23;8.63;;;;;;;;;;5028612;28;20468;-72
2021/03/18 06:46:58;;;;;;;21.33;9.80;;;;;;;;;;5017667;28;20451;-70
2021/03/18 06:49:26;;;;;;;18.30;8.48;;;;;;;;;;5007921;28;20412;-71
2021/03/18 06:52:04;;;;;;;19.15;9.23;;;;;;;;;;5022013;28;20781;-71
2021/03/18 06:54:33;;;;;;;19.58;8.85;;;;;;;;;;5027931;28;20465;-71
2021/03/18 06:57:00;;;;;;;18.55;8.85;;;;;;;;;;5028123;28;20432;-71
2021/03/18 06:59:31;;;;;;;24.58;9.73;;;;;;;;;;5028846;28;20403;-70
2021/03/18 07:02:27;;;;;;;25.30;10.27;;;;;;;;;;5026156;28;20441;-72
2021/03/18 07:04:54;;;;;;;22.50;9.95;;;;;;;;;;4990582;28;20411;-71
2021/03/18 07:07:22;;;;;;;21.83;8.93;;;;;;;;;;5028642;28;20419;-71
2021/03/18 07:09:49;;;;;;;22.27;9.75;;;;;;;;;;5020171;28;20402;-71
2021/03/18 07:12:17;;;;;;;23.98;9.88;;;;;;;;;;5024572;28;20453;-71
2021/03/18 07:14:44;;;;;;;30.70;10.05;;;;;;;;;;5022765;28;20758;-71
2021/03/18 07:17:11;;;;;;;36.35;11.02;;;;;;;;;;5025176;28;20442;-72
2021/03/18 07:19:37;;;;;;;28.50;10.10;;;;;;;;;;5015633;28;20417;-72
2021/03/18 07:22:04;;;;;;;35.13;10.93;;;;;;;;;;5022172;28;20766;-70
2021/03/18 07:24:34;;;;;;;34.28;11.23;;;;;;;;;;5024838;28;20469;-71
2021/03/18 07:27:08;;;;;;;39.65;11.85;;;;;;;;;;5024895;28;20430;-71
2021/03/18 07:29:34;;;;;;;38.83;11.83;;;;;;;;;;5026159;28;20495;-72
2021/03/18 07:32:00;;;;;;;37.00;12.77;;;;;;;;;;5021173;28;20407;-71
2021/03/18 07:34:26;;;;;;;36.92;11.27;;;;;;;;;;5024832;28;20716;-71
2021/03/18 07:37:01;;;;;;;33.05;10.73;;;;;;;;;;5027413;28;20395;-71
2021/03/18 07:39:27;;;;;;;43.35;13.48;;;;;;;;;;5003981;28;20406;-72
2021/03/18 07:41:53;;;;;;;42.47;12.88;;;;;;;;;;5021827;28;20425;-71
2021/03/18 07:44:20;;;;;;;42.20;12.57;;;;;;;;;;5026392;28;20425;-71
2021/03/18 07:46:46;;;;;;;30.88;11.02;;;;;;;;;;5026376;28;21118;-71
2021/03/18 07:49:15;;;;;;;29.58;11.57;;;;;;;;;;5008713;28;21527;-71
2021/03/18 07:51:43;;;;;;;40.63;11.60;;;;;;;;;;5026877;28;20420;-71
2021/03/18 07:54:12;;;;;;;35.33;11.40;;;;;;;;;;5008284;28;20428;-71
2021/03/18 07:56:38;;;;;;;39.30;13.82;;;;;;;;;;5035442;28;20387;-71
2021/03/18 07:59:07;;;;;;;31.23;13.32;;;;;;;;;;5027998;28;20395;-71
2021/03/18 08:01:34;;;;;;;34.97;12.70;;;;;;;;;;5036159;28;20444;-70
2021/03/18 08:04:02;;;;;;;35.40;15.25;;;;;;;;;;5042447;28;20424;-70
2021/03/18 08:06:40;;;;;;;31.03;12.40;;;;;;;;;;5028861;28;20414;-70
2021/03/18 08:09:07;;;;;;;45.13;14.55;;;;;;;;;;5018668;28;21313;-70
2021/03/18 08:11:39;;;;;;;37.95;13.35;;;;;;;;;;5031369;28;20455;-70
2021/03/18 08:14:09;;;;;;;32.25;13.88;;;;;;;;;;5036184;28;20916;-70
2021/03/18 08:16:35;;;;;;;27.10;10.52;;;;;;;;;;5018207;28;20437;-71
2021/03/18 08:19:02;;;;;;;28.17;11.43;;;;;;;;;;5034599;28;20391;-71
2021/03/18 08:21:34;;;;;;;29.35;11.30;;;;;;;;;;5027474;28;20421;-70
2021/03/18 08:24:00;;;;;;;31.05;11.85;;;;;;;;;;5031944;28;20425;-71
2021/03/18 08:26:45;;;;;;;27.35;11.68;;;;;;;;;;5026548;28;20383;-71
2021/03/18 08:29:46;;;;;;;28.90;10.60;;;;;;;;;;5027087;28;20528;-73
2021/03/18 08:32:24;;;;;;;28.73;11.07;;;;;;;;;;4926887;29;20408;-70
2021/03/18 08:34:50;;;;;;;31.38;11.82;;;;;;;;;;5015299;28;20414;-74
2021/03/18 08:37:31;;;;;;;29.30;11.83;;;;;;;;;;5024769;28;20880;-72
2021/03/18 08:39:58;;;;;;;32.03;14.70;;;;;;;;;;5026282;28;20529;-71
2021/03/18 08:42:31;;;;;;;29.35;12.48;;;;;;;;;;5008757;28;20809;-74
2021/03/18 08:44:59;;;;;;;27.13;12.43;;;;;;;;;;5025000;28;20947;-71
2021/03/18 08:47:39;;;;;;;33.75;13.13;;;;;;;;;;5027153;28;20441;-72
2021/03/18 08:50:07;;;;;;;27.98;12.75;;;;;;;;;;5026552;28;20975;-71
2021/03/18 08:52:38;;;;;;;32.22;13.77;;;;;;;;;;5024628;28;21086;-72
2021/03/18 08:55:04;;;;;;;35.15;13.20;;;;;;;;;;5025599;28;20442;-71
2021/03/18 08:57:32;;;;;;;28.73;11.63;;;;;;;;;;5021364;28;20405;-71
2021/03/18 08:59:58;;;;;;;37.35;12.73;;;;;;;;;;5026842;28;20424;-71
2021/03/18 09:02:34;;;;;;;26.52;12.38;;;;;;;;;;5031801;28;20470;-71
2021/03/18 09:05:00;;;;;;;39.45;13.38;;;;;;;;;;5034273;28;20828;-71
2021/03/18 09:07:29;;;;;;;39.15;13.30;;;;;;;;;;5013616;28;20991;-71
2021/03/18 09:10:33;;;;;;;54.20;16.38;;;;;;;;;;5024380;28;20409;-71
2021/03/18 09:13:04;;;;;;;39.33;15.52;;;;;;;;;;4971098;28;20431;-71
2021/03/18 09:15:34;;;;;;;44.53;14.32;;;;;;;;;;4970826;28;20426;-70
2021/03/18 09:18:15;;;;;;;39.42;14.70;;;;;;;;;;4990525;28;20991;-71
2021/03/18 09:20:43;;;;;;;50.95;15.32;;;;;;;;;;5027345;28;20878;-71
2021/03/18 09:23:11;;;;;;;42.47;15.00;;;;;;;;;;5030644;28;20424;-71
2021/03/18 09:25:37;;;;;;;46.17;14.90;;;;;;;;;;5036109;28;21024;-71
2021/03/18 09:28:04;;;;;;;55.03;15.98;;;;;;;;;;5014664;28;20600;-70
2021/03/18 09:30:35;;;;;;;41.13;14.52;;;;;;;;;;5035999;28;20444;-71
2021/03/18 09:33:02;;;;;;;35.75;13.73;;;;;;;;;;5038344;28;20376;-71
2021/03/18 09:35:29;;;;;;;44.50;13.93;;;;;;;;;;5032480;28;20449;-70
2021/03/18 09:37:56;;;;;;;38.60;13.43;;;;;;;;;;5032053;28;20391;-72
2021/03/18 09:40:35;;;;;;;47.53;13.02;;;;;;;;;;5004474;28;20953;-71
2021/03/18 09:43:01;;;;;;;42.85;12.63;;;;;;;;;;5024870;28;20438;-71
2021/03/18 09:45:28;;;;;;;45.00;11.68;;;;;;;;;;5024427;28;20725;-72
2021/03/18 09:47:54;;;;;;;38.75;11.25;;;;;;;;;;5027249;28;20367;-70
2021/03/18 09:50:23;;;;;;;42.70;10.40;;;;;;;;;;5006639;28;20402;-72
2021/03/18 09:52:49;;;;;;;36.03;9.80;;;;;;;;;;5010453;28;20393;-72
2021/03/18 09:55:15;;;;;;;40.35;10.80;;;;;;;;;;5021802;28;20413;-72
2021/03/18 09:57:42;;;;;;;40.38;10.48;;;;;;;;;;5028290;28;20413;-72
2021/03/18 10:00:09;;;;;;;35.03;9.50;;;;;;;;;;5026599;28;20944;-72
2021/03/18 10:02:36;;;;;;;42.85;11.23;;;;;;;;;;5027033;28;20391;-73
2021/03/18 10:05:02;;;;;;;36.33;9.35;;;;;;;;;;5028769;28;20506;-73
2021/03/18 10:07:29;;;;;;;35.90;9.32;;;;;;;;;;5010199;28;20416;-71
2021/03/18 10:09:55;;;;;;;32.83;9.07;;;;;;;;;;5008386;28;20396;-71
2021/03/18 10:12:22;;;;;;;34.50;8.80;;;;;;;;;;5005177;28;20413;-72
2021/03/18 10:14:54;;;;;;;36.17;8.18;;;;;;;;;;5002166;28;20484;-71
2021/03/18 10:17:25;;;;;;;30.13;7.23;;;;;;;;;;5007095;28;20412;-72
2021/03/18 10:20:01;;;;;;;30.85;7.97;;;;;;;;;;5007583;28;20432;-73
2021/03/18 10:22:32;;;;;;;33.45;8.05;;;;;;;;;;5009161;28;20397;-71
2021/03/18 10:25:02;;;;;;;28.83;7.43;;;;;;;;;;5008606;28;20531;-72
2021/03/18 10:27:33;;;;;;;33.03;7.80;;;;;;;;;;5011633;28;20428;-72
2021/03/18 10:30:22;;;;;;;32.13;7.90;;;;;;;;;;5022854;28;20466;-71
2021/03/18 10:33:09;;;;;;;32.70;7.88;;;;;;;;;;5019961;28;20409;-72
2021/03/18 10:35:37;;;;;;;30.67;7.70;;;;;;;;;;5010973;28;20440;-71
2021/03/18 10:38:04;;;;;;;35.58;7.72;;;;;;;;;;5014566;28;20389;-72
2021/03/18 10:40:36;;;;;;;31.58;7.00;;;;;;;;;;5008574;28;20425;-72
2021/03/18 10:43:03;;;;;;;31.33;6.72;;;;;;;;;;5010074;28;20400;-71
2021/03/18 10:45:30;;;;;;;27.20;7.25;;;;;;;;;;5007027;28;20489;-71
2021/03/18 10:47:58;;;;;;;28.85;6.40;;;;;;;;;;5007117;28;20412;-72
2021/03/18 10:50:26;;;;;;;28.23;5.83;;;;;;;;;;5008329;28;20822;-72
2021/03/18 10:52:56;;;;;;;26.70;6.13;;;;;;;;;;5007671;28;20393;-70
2021/03/18 10:55:23;;;;;;;23.50;5.70;;;;;;;;;;5008307;28;20400;-72
2021/03/18 10:57:53;;;;;;;29.13;6.60;;;;;;;;;;5006646;28;20389;-71
2021/03/18 11:00:20;;;;;;;25.90;5.88;;;;;;;;;;5010978;28;20430;-72
2021/03/18 11:02:55;;;;;;;22.67;5.68;;;;;;;;;;5009636;28;20388;-71
2021/03/18 11:05:27;;;;;;;25.92;6.07;;;;;;;;;;5008512;28;20416;-72
2021/03/18 11:07:54;;;;;;;22.90;5.47;;;;;;;;;;5015906;28;20405;-71
2021/03/18 11:10:20;;;;;;;22.15;5.63;;;;;;;;;;5009560;28;20385;-71
2021/03/18 11:12:56;;;;;;;19.20;5.30;;;;;;;;;;5023285;28;20375;-71
2021/03/18 11:15:23;;;;;;;22.67;5.55;;;;;;;;;;5023116;28;20427;-71
2021/03/18 11:18:08;;;;;;;22.98;5.65;;;;;;;;;;5014430;28;20389;-71
2021/03/18 11:20:35;;;;;;;23.73;6.25;;;;;;;;;;5008535;28;20858;-72
2021/03/18 11:23:02;;;;;;;23.40;5.65;;;;;;;;;;4996850;28;20490;-71
2021/03/18 11:25:29;;;;;;;26.15;5.93;;;;;;;;;;5008415;28;20386;-71
2021/03/18 11:27:56;;;;;;;26.40;5.45;;;;;;;;;;5009039;28;20388;-71
2021/03/18 11:30:36;;;;;;;25.83;5.80;;;;;;;;;;5016122;28;20466;-71
2021/03/18 11:33:09;;;;;;;26.58;5.60;;;;;;;;;;4998946;28;20411;-70
2021/03/18 11:35:37;;;;;;;23.45;5.38;;;;;;;;;;4995449;28;20398;-72
2021/03/18 11:38:03;;;;;;;21.80;5.55;;;;;;;;;;5002625;28;20870;-72
2021/03/18 11:40:29;;;;;;;23.23;5.68;;;;;;;;;;5007252;28;20820;-74
2021/03/18 11:42:55;;;;;;;25.73;5.90;;;;;;;;;;5008380;28;20474;-72
2021/03/18 11:45:21;;;;;;;23.98;5.97;;;;;;;;;;5006585;28;20553;-73
2021/03/18 11:47:48;;;;;;;22.23;5.50;;;;;;;;;;4995288;28;20474;-75
2021/03/18 11:50:14;;;;;;;29.58;6.25;;;;;;;;;;5005945;28;20490;-72
2021/03/18 11:52:40;;;;;;;26.07;6.33;;;;;;;;;;4989852;28;20726;-72
2021/03/18 11:55:06;;;;;;;27.67;5.93;;;;;;;;;;4989770;28;20403;-71
2021/03/18 11:57:32;;;;;;;29.20;6.20;;;;;;;;;;4999229;28;20937;-72
2021/03/18 11:59:58;;;;;;;30.83;6.57;;;;;;;;;;5005115;28;20521;-71
2021/03/18 12:02:24;;;;;;;25.25;6.38;;;;;;;;;;4996880;28;20407;-71
2021/03/18 12:04:50;;;;;;;31.58;6.43;;;;;;;;;;4997010;28;20388;-71
2021/03/18 12:07:16;;;;;;;30.98;6.25;;;;;;;;;;4990801;28;20510;-70
2021/03/18 12:09:42;;;;;;;27.80;6.25;;;;;;;;;;4997597;28;20406;-71
2021/03/18 12:12:09;;;;;;;26.17;6.45;;;;;;;;;;5005122;28;20412;-70
2021/03/18 12:14:34;;;;;;;26.05;6.97;;;;;;;;;;5004791;28;20455;-71
2021/03/18 12:17:00;;;;;;;28.52;7.15;;;;;;;;;;4990650;28;20919;-71
2021/03/18 12:19:26;;;;;;;27.83;6.07;;;;;;;;;;5007104;28;20402;-71
2021/03/18 12:21:52;;;;;;;30.17;5.75;;;;;;;;;;5004921;28;21083;-70
2021/03/18 12:24:18;;;;;;;29.80;6.57;;;;;;;;;;5009314;28;20384;-71
2021/03/18 12:26:44;;;;;;;25.43;6.43;;;;;;;;;;4997497;28;20419;-71
2021/03/18 12:29:10;;;;;;;30.75;7.05;;;;;;;;;;5000859;28;20690;-71
2021/03/18 12:31:36;;;;;;;28.67;6.75;;;;;;;;;;4981421;28;20481;-71
2021/03/18 12:34:02;;;;;;;29.35;6.25;;;;;;;;;;5003825;28;20392;-71
2021/03/18 12:36:28;;;;;;;34.03;7.30;;;;;;;;;;5005008;28;20764;-73
2021/03/18 12:38:54;;;;;;;27.97;6.43;;;;;;;;;;5006155;28;20520;-75
2021/03/18 12:41:21;;;;;;;29.88;7.00;;;;;;;;;;5005270;28;21081;-73
2021/03/18 12:43:47;;;;;;;33.15;7.03;;;;;;;;;;5003948;28;20400;-72
2021/03/18 12:46:13;;;;;;;26.55;5.90;;;;;;;;;;5004244;28;20384;-71
2021/03/18 12:48:39;;;;;;;28.73;6.37;;;;;;;;;;5004027;28;20492;-74
2021/03/18 12:51:05;;;;;;;30.15;6.75;;;;;;;;;;5006643;28;20404;-71
2021/03/18 12:53:31;;;;;;;29.60;7.28;;;;;;;;;;5006292;28;20731;-71
2021/03/18 12:55:58;;;;;;;25.70;6.27;;;;;;;;;;5007616;28;20377;-72
2021/03/18 12:58:26;;;;;;;33.63;6.20;;;;;;;;;;5006656;28;20385;-73
2021/03/18 13:00:53;;;;;;;27.60;6.25;;;;;;;;;;5007268;28;20456;-73
2021/03/18 13:03:19;;;;;;;27.13;6.17;;;;;;;;;;5026931;28;20401;-71
2021/03/18 13:05:45;;;;;;;25.88;5.68;;;;;;;;;;5032714;28;20903;-71
2021/03/18 13:08:11;;;;;;;24.83;5.35;;;;;;;;;;5047730;28;20377;-72
2021/03/18 13:10:37;;;;;;;24.48;5.80;;;;;;;;;;5034497;28;20394;-71
2021/03/18 13:13:03;;;;;;;24.65;5.55;;;;;;;;;;5024759;28;20914;-72
2021/03/18 13:15:29;;;;;;;23.43;6.23;;;;;;;;;;5023932;28;20548;-71
2021/03/18 13:17:55;;;;;;;24.35;5.75;;;;;;;;;;5024098;28;20462;-71
2021/03/18 13:20:22;;;;;;;24.38;5.57;;;;;;;;;;5027170;28;20411;-73
2021/03/18 13:22:49;;;;;;;26.42;5.32;;;;;;;;;;5027143;28;20390;-72
2021/03/18 13:25:16;;;;;;;28.23;5.28;;;;;;;;;;5027498;28;21029;-73
2021/03/18 13:27:42;;;;;;;24.13;5.60;;;;;;;;;;5025286;28;20399;-71
2021/03/18 13:30:10;;;;;;;23.30;5.15;;;;;;;;;;5029916;28;20402;-71
2021/03/18 13:32:36;;;;;;;24.67;5.78;;;;;;;;;;5029613;28;20399;-71
2021/03/18 13:35:03;;;;;;;27.17;5.60;;;;;;;;;;5026901;28;20482;-72
2021/03/18 13:37:29;;;;;;;26.77;5.88;;;;;;;;;;5027117;28;20413;-71
2021/03/18 13:39:55;;;;;;;26.60;6.63;;;;;;;;;;5027012;28;20415;-72
2021/03/18 13:42:21;;;;;;;24.58;6.50;;;;;;;;;;5011750;28;20379;-71
2021/03/18 13:44:47;;;;;;;24.20;5.75;;;;;;;;;;5011712;28;20383;-72
2021/03/18 13:47:14;;;;;;;23.75;5.90;;;;;;;;;;5029115;28;20743;-72
2021/03/18 13:49:40;;;;;;;25.50;6.43;;;;;;;;;;5029199;28;20371;-72
2021/03/18 13:52:07;;;;;;;19.67;4.85;;;;;;;;;;5029084;28;20371;-71
2021/03/18 13:54:32;;;;;;;25.13;6.00;;;;;;;;;;5029665;28;21038;-71
2021/03/18 13:56:58;;;;;;;21.17;4.93;;;;;;;;;;5030291;28;20394;-72
2021/03/18 13:59:24;;;;;;;21.77;4.75;;;;;;;;;;5030334;28;20387;-73
2021/03/18 14:01:50;;;;;;;25.67;5.50;;;;;;;;;;5030323;28;20860;-72
2021/03/18 14:04:16;;;;;;;24.23;5.30;;;;;;;;;;5030021;28;20713;-72
2021/03/18 14:06:42;;;;;;;22.55;5.65;;;;;;;;;;5017054;28;20417;-72
2021/03/18 14:09:09;;;;;;;24.42;5.25;;;;;;;;;;4992137;28;20384;-71
2021/03/18 14:11:35;;;;;;;21.20;5.43;;;;;;;;;;5010055;28;20961;-72
2021/03/18 14:14:01;;;;;;;22.67;5.30;;;;;;;;;;5010859;28;20377;-71
2021/03/18 14:16:27;;;;;;;24.05;5.55;;;;;;;;;;5009830;28;20551;-72
2021/03/18 14:18:53;;;;;;;20.90;4.97;;;;;;;;;;5010198;28;20396;-71
2021/03/18 14:21:19;;;;;;;25.25;5.30;;;;;;;;;;5009856;28;20413;-72
2021/03/18 14:23:45;;;;;;;23.23;5.57;;;;;;;;;;5009377;28;20383;-72
2021/03/18 14:26:11;;;;;;;20.25;4.93;;;;;;;;;;5008818;28;20388;-72
2021/03/18 14:28:37;;;;;;;18.73;4.80;;;;;;;;;;4993064;28;20810;-72
2021/03/18 14:31:05;;;;;;;25.05;5.30;;;;;;;;;;5009756;28;20420;-72
2021/03/18 14:33:31;;;;;;;25.13;5.35;;;;;;;;;;5010114;28;20488;-72